1991 ELMA (1991057S10087)


On this page: IBTrACS data - Map and Plots - Positions - Intensities - Original source data

Summary

Start Feb 26
End Mar 5
Basin SI
LMI 80 kt
Sources jtwc_sh
bom
reunion
neumann
In WMO? Yes
Previous storm 1991 KELVIN (SP)
Previous in basin 1991 DEBRA (SI)
Concurrent storms 1991 DAPHNE (SP)
1991 DEBRA (SI)
1991 KELVIN (SP)
1991 ELMA (SI)
1991 SHARON (WP)
1991 HSK1691 (SP)
Next in basin Missing
Next storm 1991 SHARON (WP)

top of page IBTrACS Data: File Access

top of page HURSAT Data: File Access

Image of storm

top of page Plots:

Map of storm track will not appear if FTP is down
Time series of cyclone Maximum Sustained Wind will not appear if FTP is down
Time series of cyclone Minimum Central Pressure will not appear if FTP is down

top of page Track Data:Position

jtwc_sh bom reunion neumann
Date Lat Lon Lat Lon Lat Lon Lat Lon
1991-02-26 00:00:00 -11.5 86.1 -9.4 88.1 -10.8 86.5 -9.3 88.0
1991-02-26 06:00:00 -11.9 86.7 -10.3 88.2 -10.8 87.5 -10.3 88.1
1991-02-26 12:00:00 -12.1 87.6 -11.0 88.4 -11.2 88.2 -11.0 88.4
1991-02-26 18:00:00 -12.6 88.3 -11.8 88.6 -12.1 88.5 -11.8 88.5
1991-02-27 00:00:00 -13.1 88.9 -12.8 88.7 -13.0 88.5 -12.8 88.6
1991-02-27 06:00:00 -14.1 88.9 -13.7 88.8 -13.9 88.5 -13.6 88.8
1991-02-27 12:00:00 -14.7 88.3 -14.5 88.8 -14.8 88.4 -14.5 88.8
1991-02-27 18:00:00 -15.4 87.9 -15.3 88.6 -15.7 88.3 -15.3 88.5
1991-02-28 00:00:00 -16.1 87.8 -16.0 88.4 -16.3 88.3 -16.0 88.4
1991-02-28 06:00:00 -16.8 87.9 -16.8 88.4 -17.0 88.3 -16.7 88.4
1991-02-28 12:00:00 -17.6 88.2 -17.4 88.5 -17.6 88.4 -17.3 88.5
1991-02-28 18:00:00 -18.4 88.6 -18.0 88.9 -18.3 88.5 -18.0 88.9
1991-03-01 00:00:00 -19.0 88.8 -18.6 89.3 -18.8 88.7 -18.6 89.3
1991-03-01 06:00:00 -19.7 88.9 -19.3 89.3 -19.3 89.0 -19.2 89.3
1991-03-01 12:00:00 -20.2 89.3 -20.1 89.4 -19.9 89.4 -20.1 89.4
1991-03-01 18:00:00 -20.7 89.8 -20.7 89.8 -20.4 89.7 -20.7 89.8
1991-03-02 00:00:00 -21.4 90.3 -21.2 90.2 -21.0 90.1 -21.2 90.1
1991-03-02 06:00:00 -22.0 90.6 -21.8 90.6 -21.5 90.4 -21.7 90.5
1991-03-02 12:00:00 -22.5 91.0 -22.4 91.0 -22.2 90.7 -22.3 91.0
1991-03-02 18:00:00 -22.9 91.5 -23.0 91.6 -23.0 91.1 -23.0 91.5
1991-03-03 00:00:00 -23.5 92.1 -23.5 92.1 -23.8 92.0 -23.5 92.0
1991-03-03 06:00:00 -24.3 92.7 -24.3 93.5 -24.4 93.2 -24.2 93.5
1991-03-03 12:00:00 -25.0 93.7 -25.2 94.2 -25.1 94.3 -25.2 94.1
1991-03-03 18:00:00 -26.0 93.9 -26.1 93.9 -25.8 95.1 -26.1 93.9
1991-03-04 00:00:00 -26.6 92.9 -27.0 93.5 -26.6 95.2 -27.0 93.5
jtwc_sh bom reunion neumann
1991-03-04 06:00:00 -27.5 92.9 -26.8 94.4 -27.5 92.9
1991-03-04 12:00:00 -27.2 91.5 -26.4 92.8 -27.2 91.5
1991-03-04 18:00:00 -26.6 90.4 -26.1 91.0 -26.6 90.4
1991-03-05 00:00:00 -26.0 89.3 -25.9 89.3 -26.0 89.3
1991-03-05 06:00:00 -25.8 87.5
1991-03-05 12:00:00 -25.8 85.7

top of pageTrack Data:Intensity

jtwc_sh bom reunion neumann
Date Wind Pres Wind Pres Wind Pres Wind Pres
1991-02-26 00:00:00 20. 31. 1000. 20. 1003. 30. 1000.
1991-02-26 06:00:00 25. 31. 1000. 24. 1000. 30. 1000.
1991-02-26 12:00:00 30. 31. 1000. 28. 997. 30. 1000.
1991-02-26 18:00:00 35. 39. 995. 35. 992. 40. 995.
1991-02-27 00:00:00 40. 47. 990. 39. 988. 45. 990.
1991-02-27 06:00:00 40. 47. 990. 44. 984. 45. 990.
1991-02-27 12:00:00 45. 54. 985. 47. 981. 55. 985.
1991-02-27 18:00:00 50. 60. 980. 52. 976. 60. 980.
1991-02-28 00:00:00 60. 60. 980. 52. 976. 60. 980.
1991-02-28 06:00:00 60. 66. 975. 52. 976. 70. 975.
1991-02-28 12:00:00 60. 74. 970. 52. 976. 75. 970.
1991-02-28 18:00:00 60. 80. 965. 52. 976. 80. 965.
1991-03-01 00:00:00 55. 80. 965. 52. 976. 80. 965.
1991-03-01 06:00:00 55. 74. 970. 52. 976. 75. 970.
1991-03-01 12:00:00 50. 74. 970. 52. 976. 75. 970.
1991-03-01 18:00:00 45. 66. 975. 56. 972. 70. 975.
1991-03-02 00:00:00 45. 66. 975. 62. 966. 70. 975.
1991-03-02 06:00:00 45. 60. 980. 62. 966. 60. 980.
1991-03-02 12:00:00 45. 54. 985. 58. 970. 55. 985.
1991-03-02 18:00:00 45. 47. 990. 52. 976. 45. 990.
1991-03-03 00:00:00 40. 47. 990. 47. 981. 45. 990.
1991-03-03 06:00:00 40. 39. 995. 44. 984. 40. 995.
1991-03-03 12:00:00 35. 31. 1000. 39. 988. 30. 1000.
1991-03-03 18:00:00 35. 31. 1000. 36. 991. 30. 1000.
1991-03-04 00:00:00 35. 23. 1005. 36. 991. 20. 1005.
jtwc_sh bom reunion neumann
1991-03-04 06:00:00 23. 1005. 36. 991. 20. 1005.
1991-03-04 12:00:00 23. 1005. 31. 995. 20. 1005.
1991-03-04 18:00:00 23. 1005. 28. 997. 20. 1005.
1991-03-05 00:00:00 23. 1005. 28. 997. 20. 1005.
1991-03-05 06:00:00 24. 1000.
1991-03-05 12:00:00 20. 1004.

top of page Links to source data

Source Source file Format
jtwc_sh bsh141991.txt ATCF
bom Newcyclonedatabase-08repair.csv:Line=15989:ELMA CSV file (from Excel file)
reunion WMO-Best-Tracks.txt:Line=15243:elma WMO (old format)
neumann tracks.sh:Storm=913:ELMA:BSH141991:BM599 HURDAT